Time;durP1;ratioP1;P1;durP2;ratioP2;P2;SDS_P1;SDS_P2;PMS_P1;PMS_P2;Temp;Humidity;BMP_temperature;BMP_pressure;BME280_temperature;BME280_humidity;BME280_pressure;Samples;Min_cycle;Max_cycle;Signal;HPM_P1;HPM_P2
2022/06/02 00:01:23;;;;;;;2.00;1.08;;;15.30;1.00;;;;;;7366979;19;20017;-60
2022/06/02 00:04:00;;;;;;;1.92;1.13;;;15.30;1.00;;;;;;7362641;19;20010;-60
2022/06/02 00:06:43;;;;;;;3.00;1.10;;;15.30;1.00;;;;;;7382474;19;20026;-59
2022/06/02 00:09:27;;;;;;;2.35;1.10;;;15.40;1.00;;;;;;7383773;19;20422;-59
2022/06/02 00:12:08;;;;;;;1.90;1.00;;;15.30;1.00;;;;;;7365346;19;20530;-60
2022/06/02 00:14:49;;;;;;;1.55;1.20;;;15.30;1.00;;;;;;7363084;19;20007;-59
2022/06/02 00:17:35;;;;;;;3.28;1.02;;;15.40;1.00;;;;;;7363945;19;20384;-58
2022/06/02 00:20:09;;;;;;;2.35;1.30;;;15.40;1.00;;;;;;7365853;19;20014;-59
2022/06/02 00:22:48;;;;;;;2.38;1.50;;;15.30;1.00;;;;;;7362339;19;20439;-59
2022/06/02 00:25:27;;;;;;;2.92;1.50;;;15.20;1.00;;;;;;7365408;19;20011;-59
2022/06/02 00:28:06;;;;;;;1.50;1.02;;;15.20;1.00;;;;;;7364418;19;20074;-59
2022/06/02 00:30:42;;;;;;;2.33;1.00;;;15.20;1.00;;;;;;7365840;19;20018;-59
2022/06/02 00:33:23;;;;;;;1.77;1.08;;;15.20;1.00;;;;;;7382993;19;20029;-58
2022/06/02 00:35:56;;;;;;;4.72;1.10;;;15.10;1.00;;;;;;7363612;19;20764;-58
2022/06/02 00:38:30;;;;;;;1.45;1.20;;;15.10;1.00;;;;;;7362471;19;20023;-60
2022/06/02 00:41:13;;;;;;;4.25;1.00;;;15.20;1.00;;;;;;7366354;19;20010;-59
2022/06/02 00:43:59;;;;;;;2.78;1.20;;;15.10;1.00;;;;;;7361598;19;20007;-59
2022/06/02 00:46:51;;;;;;;1.30;1.15;;;15.00;1.00;;;;;;7366008;19;20082;-58
2022/06/02 00:49:36;;;;;;;2.42;1.20;;;15.00;1.00;;;;;;7361645;19;20010;-59
2022/06/02 00:52:29;;;;;;;3.20;1.40;;;14.90;1.00;;;;;;7363882;19;20069;-59
2022/06/02 00:58:05;;;;;;;1.02;0.93;;;15.00;1.00;;;;;;7359849;19;22157;-59
2022/06/02 01:00:41;;;;;;;1.33;0.95;;;14.80;1.00;;;;;;7364855;19;20017;-59
2022/06/02 01:03:16;;;;;;;3.08;1.40;;;14.90;1.00;;;;;;7382796;19;20659;-59
2022/06/02 01:05:59;;;;;;;;;;;14.80;1.00;;;;;;7363736;19;20470;-59
2022/06/02 01:08:55;;;;;;;2.13;1.30;;;14.80;1.00;;;;;;7362137;19;19954;-59
2022/06/02 01:11:36;;;;;;;3.88;1.25;;;14.70;1.00;;;;;;7364424;19;20473;-59
2022/06/02 01:14:23;;;;;;;1.52;1.00;;;14.60;1.00;;;;;;7357959;19;20016;-59
2022/06/02 01:17:01;;;;;;;3.13;1.60;;;14.60;1.00;;;;;;7364575;19;20017;-59
2022/06/02 01:20:06;;;;;;;1.45;0.98;;;14.50;1.00;;;;;;7365017;19;20039;-59
2022/06/02 01:23:11;;;;;;;2.03;1.20;;;14.60;1.00;;;;;;7366320;19;20020;-60
2022/06/02 01:25:59;;;;;;;1.23;1.13;;;14.40;1.00;;;;;;7368061;19;20030;-59
2022/06/02 01:28:43;;;;;;;2.90;1.27;;;14.40;1.00;;;;;;7368863;19;20037;-59
2022/06/02 01:31:26;;;;;;;6.13;1.97;;;14.40;1.00;;;;;;7372287;19;20081;-59
2022/06/02 01:34:05;;;;;;;1.83;1.27;;;14.30;1.00;;;;;;7366100;19;20093;-59
2022/06/02 01:36:42;;;;;;;2.75;1.00;;;14.30;1.00;;;;;;7370355;19;20026;-59
2022/06/02 01:39:26;;;;;;;2.17;1.10;;;14.20;1.00;;;;;;7391454;19;20035;-59
2022/06/02 01:42:08;;;;;;;3.65;1.30;;;14.20;1.00;;;;;;7370513;19;20522;-58
2022/06/02 01:44:56;;;;;;;2.22;1.30;;;14.30;1.00;;;;;;7365251;19;20014;-58
2022/06/02 01:47:35;;;;;;;3.15;1.45;;;14.10;1.00;;;;;;7368387;19;20537;-59
2022/06/02 01:50:20;;;;;;;2.75;1.60;;;14.10;1.00;;;;;;7369973;19;20043;-59
2022/06/02 01:53:03;;;;;;;3.10;1.45;;;14.10;1.00;;;;;;7367206;19;20006;-59
2022/06/02 01:56:00;;;;;;;3.38;1.70;;;14.00;1.00;;;;;;7368539;19;20010;-59
2022/06/02 01:58:42;;;;;;;3.90;1.23;;;14.00;1.00;;;;;;7368590;19;20011;-60
2022/06/02 02:01:18;;;;;;;8.40;1.52;;;14.00;1.00;;;;;;7371669;19;20010;-59
2022/06/02 02:04:03;;;;;;;4.05;1.52;;;14.00;1.00;;;;;;7365678;19;20082;-59
2022/06/02 02:06:43;;;;;;;1.80;1.30;;;14.00;1.00;;;;;;7369765;19;20050;-60
2022/06/02 02:09:20;;;;;;;2.22;1.30;;;14.00;1.00;;;;;;7390539;19;20025;-60
2022/06/02 02:11:53;;;;;;;1.60;1.27;;;13.90;1.00;;;;;;7367701;19;20015;-58
2022/06/02 02:14:44;;;;;;;5.60;1.30;;;13.90;1.00;;;;;;7364144;19;20006;-59
2022/06/02 02:17:25;;;;;;;2.53;1.35;;;13.90;1.00;;;;;;7366231;19;20010;-59
2022/06/02 02:20:07;;;;;;;1.83;1.30;;;14.00;1.00;;;;;;7369885;19;20094;-58
2022/06/02 02:22:45;;;;;;;2.28;1.40;;;14.00;1.00;;;;;;7367081;19;20278;-59
2022/06/02 02:25:21;;;;;;;2.88;1.25;;;13.90;1.00;;;;;;7368305;19;20007;-58
2022/06/02 02:28:04;;;;;;;1.65;1.33;;;13.90;1.00;;;;;;7367375;19;20006;-58
2022/06/02 02:30:46;;;;;;;4.25;1.60;;;13.80;1.00;;;;;;7370510;19;20015;-59
2022/06/02 02:33:28;;;;;;;2.97;1.50;;;13.80;1.00;;;;;;7383916;19;20014;-60
2022/06/02 02:36:07;;;;;;;1.98;1.50;;;13.90;1.00;;;;;;7365835;19;20021;-58
2022/06/02 02:38:45;;;;;;;2.47;1.42;;;13.80;1.00;;;;;;7366928;19;20017;-58
2022/06/02 02:41:19;;;;;;;1.75;1.20;;;13.90;1.00;;;;;;7370655;19;20470;-59
2022/06/02 02:43:57;;;;;;;3.03;1.30;;;13.90;1.00;;;;;;7363291;19;20014;-59
2022/06/02 02:46:37;;;;;;;3.42;1.33;;;13.80;1.00;;;;;;7368614;19;20003;-58
2022/06/02 02:49:15;;;;;;;2.10;1.50;;;13.80;1.00;;;;;;7366518;19;20006;-58
2022/06/02 02:51:54;;;;;;;1.60;1.20;;;13.80;1.00;;;;;;7370246;19;20035;-58
2022/06/02 02:54:31;;;;;;;1.70;1.40;;;13.80;1.00;;;;;;7384626;19;20025;-59
2022/06/02 02:57:07;;;;;;;2.17;1.40;;;13.80;1.00;;;;;;7365609;19;20070;-59
2022/06/02 02:59:45;;;;;;;3.03;1.70;;;13.70;1.00;;;;;;7366696;19;20011;-58
2022/06/02 03:02:21;;;;;;;3.25;1.35;;;13.70;1.00;;;;;;7366487;19;20014;-59
2022/06/02 03:04:59;;;;;;;2.83;1.40;;;13.70;1.00;;;;;;7363939;19;20011;-58
2022/06/02 03:07:32;;;;;;;2.58;1.42;;;13.60;1.00;;;;;;7364503;19;20007;-58
2022/06/02 03:10:12;;;;;;;3.58;1.42;;;13.60;1.00;;;;;;7366522;19;20042;-58
2022/06/02 03:13:10;;;;;;;2.15;1.42;;;13.50;1.00;;;;;;7364685;19;20078;-59
2022/06/02 03:15:45;;;;;;;3.88;1.50;;;13.50;1.00;;;;;;7364071;19;20014;-58
2022/06/02 03:18:40;;;;;;;3.15;1.50;;;13.50;1.00;;;;;;7386814;19;20026;-58
2022/06/02 03:21:18;;;;;;;3.08;1.33;;;13.50;1.00;;;;;;7367571;19;20017;-58
2022/06/02 03:24:21;;;;;;;2.67;1.63;;;13.50;1.00;;;;;;7360956;19;20018;-59
2022/06/02 03:27:05;;;;;;;2.50;1.60;;;13.50;1.00;;;;;;7363449;19;20025;-59
2022/06/02 03:29:48;;;;;;;3.47;1.52;;;13.50;1.00;;;;;;7367762;19;20052;-59
2022/06/02 03:32:34;;;;;;;2.30;1.40;;;13.50;1.00;;;;;;7367879;19;20003;-59
2022/06/02 03:35:12;;;;;;;2.90;1.65;;;13.40;1.00;;;;;;7364933;19;20016;-59
2022/06/02 03:37:57;;;;;;;3.95;1.95;;;13.50;1.00;;;;;;7364477;19;20014;-59
2022/06/02 03:40:53;;;;;;;6.30;1.90;;;13.50;1.00;;;;;;7369180;19;20015;-59
2022/06/02 03:43:35;;;;;;;4.20;2.00;;;14.00;1.00;;;;;;7362311;19;20011;-58
2022/06/02 03:46:17;;;;;;;2.92;1.50;;;14.60;1.00;;;;;;7365577;19;20106;-59
2022/06/02 03:49:05;;;;;;;2.92;1.60;;;14.10;1.00;;;;;;7364969;19;20051;-58
2022/06/02 03:51:43;;;;;;;3.55;1.75;;;13.90;1.00;;;;;;7367098;19;20088;-59
2022/06/02 03:54:35;;;;;;;4.15;1.70;;;14.00;1.00;;;;;;7384414;19;20013;-59
2022/06/02 03:57:16;;;;;;;3.45;1.90;;;14.50;1.00;;;;;;7363897;19;20077;-58
2022/06/02 04:00:03;;;;;;;3.00;1.83;;;15.30;1.00;;;;;;7367611;19;20017;-59
2022/06/02 04:02:38;;;;;;;3.95;1.60;;;16.10;1.00;;;;;;7363946;19;20049;-59
2022/06/02 04:05:31;;;;;;;3.38;1.55;;;15.60;1.00;;;;;;7364174;19;20066;-59
2022/06/02 04:08:12;;;;;;;4.65;1.75;;;14.70;1.00;;;;;;7360609;19;20474;-59
2022/06/02 04:10:52;;;;;;;2.70;1.60;;;14.20;1.00;;;;;;7367714;19;19998;-58
2022/06/02 04:13:40;;;;;;;2.58;1.63;;;13.70;1.00;;;;;;7362779;19;20006;-59
2022/06/02 04:16:38;;;;;;;2.83;1.60;;;14.30;1.00;;;;;;7365602;19;20027;-58
2022/06/02 04:22:22;;;;;;;2.17;1.67;;;13.90;1.00;;;;;;7365635;19;20006;-59
2022/06/02 04:25:01;;;;;;;3.50;1.60;;;14.40;1.00;;;;;;7364674;19;20087;-60
2022/06/02 04:27:39;;;;;;;3.25;1.60;;;15.80;1.00;;;;;;7373884;19;20526;-58
2022/06/02 04:30:21;;;;;;;3.15;1.50;;;16.70;1.00;;;;;;7388294;19;20074;-59
2022/06/02 04:33:03;;;;;;;2.92;1.60;;;17.10;1.00;;;;;;7363330;19;20034;-60
2022/06/02 04:35:41;;;;;;;1.60;1.45;;;17.80;1.00;;;;;;7362896;19;20081;-59
2022/06/02 04:38:21;;;;;;;6.32;1.70;;;18.70;1.00;;;;;;7360270;19;20006;-60
2022/06/02 04:41:00;;;;;;;7.13;1.50;;;18.00;1.00;;;;;;7365665;19;20070;-59
2022/06/02 04:43:43;;;;;;;3.97;1.60;;;18.90;1.00;;;;;;7361784;19;20026;-60
2022/06/02 04:46:27;;;;;;;4.32;1.80;;;18.50;1.00;;;;;;7365144;19;20352;-59
2022/06/02 04:49:07;;;;;;;4.00;1.88;;;16.70;1.00;;;;;;7362199;19;20011;-59
2022/06/02 04:51:50;;;;;;;1.95;1.70;;;15.70;1.00;;;;;;7366960;19;20010;-58
2022/06/02 04:54:30;;;;;;;2.00;1.40;;;15.60;1.00;;;;;;7381855;19;20053;-58
2022/06/02 04:57:14;;;;;;;3.53;1.40;;;16.50;1.00;;;;;;7359933;19;20254;-59
2022/06/02 04:59:53;;;;;;;2.80;1.63;;;18.50;1.00;;;;;;7365517;19;20471;-59
2022/06/02 05:02:35;;;;;;;5.72;1.92;;;18.20;1.00;;;;;;7363851;19;20086;-59
2022/06/02 05:05:17;;;;;;;3.20;1.70;;;18.10;1.00;;;;;;7362839;19;20010;-61
2022/06/02 05:08:12;;;;;;;2.55;1.55;;;19.60;1.00;;;;;;7361169;19;20021;-59
2022/06/02 05:10:50;;;;;;;4.60;1.67;;;19.00;1.00;;;;;;7365043;19;20241;-58
2022/06/02 05:13:29;;;;;;;4.47;1.70;;;19.90;1.00;;;;;;7361875;19;20524;-59
2022/06/02 05:16:11;;;;;;;1.63;1.40;;;19.60;1.00;;;;;;7362158;19;20017;-59
2022/06/02 05:19:11;;;;;;;5.30;1.70;;;20.80;1.00;;;;;;7360601;19;20018;-59
2022/06/02 05:22:04;;;;;;;1.92;1.58;;;19.20;1.00;;;;;;7365072;19;20014;-59
2022/06/02 05:25:04;;;;;;;5.00;1.30;;;19.50;1.00;;;;;;7360471;19;20488;-59
2022/06/02 05:28:10;;;;;;;2.63;1.52;;;19.30;1.00;;;;;;7360616;19;20018;-59
2022/06/02 05:31:00;;;;;;;4.15;2.10;;;20.20;1.00;;;;;;7362806;19;20010;-59
2022/06/02 05:34:01;;;;;;;3.63;1.63;;;20.20;1.00;;;;;;7382187;19;20014;-59
2022/06/02 05:37:12;;;;;;;3.00;1.60;;;19.30;1.00;;;;;;7259509;19;2005207;-59
2022/06/02 05:39:55;;;;;;;3.67;1.60;;;20.90;1.00;;;;;;7364082;19;20034;-59
2022/06/02 05:42:37;;;;;;;1.90;1.70;;;20.80;1.00;;;;;;7384285;19;20454;-59
2022/06/02 05:45:21;;;;;;;2.10;1.45;;;20.40;1.00;;;;;;7361298;19;20329;-59
2022/06/02 05:48:03;;;;;;;4.07;1.67;;;20.80;1.00;;;;;;7359039;19;20478;-58
2022/06/02 05:50:48;;;;;;;6.80;1.70;;;20.10;1.00;;;;;;7363852;19;20007;-59
2022/06/02 05:53:39;;;;;;;6.07;1.55;;;19.60;1.00;;;;;;7359326;19;20423;-59
2022/06/02 05:56:17;;;;;;;3.88;1.77;;;19.80;1.00;;;;;;7361847;19;20021;-59
2022/06/02 05:59:04;;;;;;;2.88;1.80;;;18.50;1.00;;;;;;7360228;19;20081;-58
2022/06/02 06:01:51;;;;;;;5.13;1.95;;;19.00;1.00;;;;;;7364194;19;20013;-59
2022/06/02 06:04:38;;;;;;;8.10;2.20;;;19.30;1.00;;;;;;7359246;19;20867;-59
2022/06/02 06:07:21;;;;;;;3.55;1.90;;;18.90;1.00;;;;;;7359260;19;20094;-59
2022/06/02 06:10:04;;;;;;;3.20;1.52;;;17.70;1.00;;;;;;7370536;19;20049;-59
2022/06/02 06:13:00;;;;;;;1.65;1.55;;;17.30;1.00;;;;;;7367197;19;20200;-60
2022/06/02 06:15:45;;;;;;;4.85;1.88;;;17.20;1.00;;;;;;7385847;19;20677;-60
2022/06/02 06:18:33;;;;;;;1.88;1.55;;;17.10;1.00;;;;;;7389951;19;20017;-60
2022/06/02 06:21:14;;;;;;;4.10;2.13;;;16.90;1.00;;;;;;7370920;19;20019;-59
2022/06/02 06:24:13;;;;;;;4.47;2.33;;;17.10;1.00;;;;;;7365841;19;20473;-59
2022/06/02 06:26:54;;;;;;;4.18;2.20;;;17.30;1.00;;;;;;7366097;19;20018;-59
2022/06/02 06:29:39;;;;;;;3.45;1.80;;;17.20;1.00;;;;;;7366183;19;20002;-59
2022/06/02 06:32:22;;;;;;;7.35;2.25;;;18.30;1.00;;;;;;7366743;19;20014;-60
2022/06/02 06:35:03;;;;;;;3.42;2.35;;;18.60;1.00;;;;;;7367368;19;20014;-59
2022/06/02 06:38:08;;;;;;;4.13;2.20;;;19.20;1.00;;;;;;7365091;19;20021;-59
2022/06/02 06:40:53;;;;;;;5.55;1.73;;;18.40;1.00;;;;;;7369042;19;20010;-60
2022/06/02 06:43:42;;;;;;;4.90;2.03;;;18.80;1.00;;;;;;7366395;19;20015;-59
2022/06/02 06:46:20;;;;;;;4.03;1.80;;;18.50;1.00;;;;;;7367923;19;20006;-59
2022/06/02 06:48:57;;;;;;;5.95;2.25;;;17.80;1.00;;;;;;7364785;19;20010;-59
2022/06/02 06:51:38;;;;;;;2.13;1.80;;;17.80;1.00;;;;;;7391082;19;20012;-60
2022/06/02 06:54:14;;;;;;;4.57;2.13;;;17.50;1.00;;;;;;7362462;19;20081;-59
2022/06/02 06:56:51;;;;;;;5.05;1.63;;;17.80;1.00;;;;;;7365941;19;20157;-59
2022/06/02 06:59:39;;;;;;;4.43;1.95;;;17.70;1.00;;;;;;7365292;19;20077;-59
2022/06/02 07:02:26;;;;;;;6.63;2.00;;;17.60;1.00;;;;;;7366653;19;20025;-58
2022/06/02 07:05:03;;;;;;;4.88;2.03;;;17.70;1.00;;;;;;7366259;19;20039;-59
2022/06/02 07:07:43;;;;;;;5.10;2.17;;;17.80;1.00;;;;;;7364532;19;21307;-59
2022/06/02 07:10:20;;;;;;;4.22;1.92;;;17.80;1.00;;;;;;7368869;19;20043;-59
2022/06/02 07:12:55;;;;;;;3.30;2.00;;;17.90;1.00;;;;;;7365500;19;20010;-59
2022/06/02 07:15:37;;;;;;;3.80;2.00;;;18.10;1.00;;;;;;7387725;19;20086;-58
2022/06/02 07:18:18;;;;;;;5.55;2.00;;;18.10;1.00;;;;;;7362586;19;20017;-58
2022/06/02 07:20:54;;;;;;;4.43;1.95;;;17.80;1.00;;;;;;7367296;19;20482;-59
2022/06/02 07:23:49;;;;;;;4.22;1.92;;;18.00;1.00;;;;;;7364959;19;20015;-61
2022/06/02 07:26:31;;;;;;;8.10;1.90;;;18.40;1.00;;;;;;7365395;19;20006;-58
2022/06/02 07:29:13;;;;;;;2.38;1.70;;;18.40;1.00;;;;;;7364320;19;20073;-58
2022/06/02 07:32:14;;;;;;;5.88;1.63;;;17.80;1.00;;;;;;7366666;19;20022;-58
2022/06/02 07:35:01;;;;;;;4.97;1.73;;;18.40;1.00;;;;;;7364607;19;20400;-59
2022/06/02 07:37:38;;;;;;;6.25;2.10;;;18.40;1.00;;;;;;7363350;19;20015;-59
2022/06/02 07:40:31;;;;;;;3.25;1.50;;;18.20;1.00;;;;;;7368025;19;20057;-59
2022/06/02 07:43:22;;;;;;;5.05;1.90;;;17.90;1.00;;;;;;7363050;19;20020;-59
2022/06/02 07:46:01;;;;;;;4.93;1.73;;;18.20;1.00;;;;;;7363470;19;20114;-59
2022/06/02 07:49:04;;;;;;;6.07;1.92;;;18.40;1.00;;;;;;7366731;19;20014;-59
2022/06/02 07:51:42;;;;;;;1.92;1.75;;;18.50;1.00;;;;;;7368786;19;20474;-59
2022/06/02 07:54:33;;;;;;;6.38;2.30;;;18.70;1.00;;;;;;7382611;19;20025;-60
2022/06/02 07:57:14;;;;;;;5.28;1.58;;;18.50;1.00;;;;;;7363507;19;20019;-59
2022/06/02 08:00:09;;;;;;;4.32;1.80;;;19.00;1.00;;;;;;7367355;19;20488;-58
2022/06/02 08:02:55;;;;;;;5.28;1.42;;;18.80;1.00;;;;;;7362445;19;20461;-59
2022/06/02 08:05:38;;;;;;;4.85;1.60;;;18.60;1.00;;;;;;7364610;19;20039;-59
2022/06/02 08:08:16;;;;;;;11.15;1.77;;;18.80;1.00;;;;;;7362032;19;20462;-58
2022/06/02 08:10:58;;;;;;;2.67;1.50;;;18.50;1.00;;;;;;7367380;19;20006;-58
2022/06/02 08:13:37;;;;;;;15.43;8.90;;;18.80;1.00;;;;;;7363847;19;20034;-59
2022/06/02 08:16:11;;;;;;;3.63;1.50;;;19.50;1.00;;;;;;7364744;19;20027;-59
2022/06/02 08:19:04;;;;;;;5.10;1.77;;;19.20;1.00;;;;;;7361262;19;20011;-60
2022/06/02 08:21:43;;;;;;;8.98;1.58;;;18.70;1.00;;;;;;7367087;19;20077;-59
2022/06/02 08:24:27;;;;;;;2.75;1.58;;;19.30;1.00;;;;;;7380565;19;20353;-60
2022/06/02 08:27:12;;;;;;;10.45;1.75;;;19.10;1.00;;;;;;7363784;19;20014;-59
2022/06/02 08:29:55;;;;;;;3.78;1.60;;;19.30;1.00;;;;;;7365322;19;20019;-61
2022/06/02 08:32:42;;;;;;;4.15;2.20;;;19.10;1.00;;;;;;7362745;19;20115;-58
2022/06/02 08:35:24;;;;;;;2.95;1.33;;;19.20;1.00;;;;;;7363023;19;20007;-59
2022/06/02 08:38:10;;;;;;;2.65;1.40;;;19.20;1.00;;;;;;7359493;19;20087;-59
2022/06/02 08:44:14;;;;;;;3.63;1.20;;;19.20;1.00;;;;;;7360786;19;20066;-59
2022/06/02 08:47:08;;;;;;;1.35;1.17;;;19.30;1.00;;;;;;7362195;19;20021;-60
2022/06/02 08:50:10;;;;;;;3.03;1.50;;;19.60;1.00;;;;;;7365806;19;20519;-60
2022/06/02 08:53:19;;;;;;;3.63;1.42;;;19.60;1.00;;;;;;7362200;19;20002;-58
2022/06/02 08:56:21;;;;;;;1.95;1.63;;;19.40;1.00;;;;;;7362853;19;20470;-58
2022/06/02 08:59:29;;;;;;;3.47;1.45;;;19.40;1.00;;;;;;7360801;19;20022;-59
2022/06/02 09:02:34;;;;;;;1.42;1.25;;;19.30;1.00;;;;;;7362659;19;20015;-59
2022/06/02 09:05:33;;;;;;;5.78;1.60;;;19.50;1.00;;;;;;7361034;19;20089;-58
2022/06/02 09:08:26;;;;;;;2.67;1.20;;;19.80;1.00;;;;;;7360036;19;20064;-58
2022/06/02 09:11:38;;;;;;;5.63;1.15;;;20.00;1.00;;;;;;7364898;19;20015;-58
2022/06/02 09:14:55;;;;;;;3.00;1.38;;;20.10;1.00;;;;;;7356639;19;20073;-58
2022/06/02 09:17:30;;;;;;;2.30;1.40;;;19.70;1.00;;;;;;7359630;19;21045;-59
2022/06/02 09:20:22;;;;;;;5.10;1.40;;;19.90;1.00;;;;;;7363136;19;20107;-59
2022/06/02 09:23:07;;;;;;;3.28;1.65;;;19.80;1.00;;;;;;7361611;19;20011;-59
2022/06/02 09:25:55;;;;;;;3.88;1.30;;;19.90;1.00;;;;;;7362346;19;20006;-58
2022/06/02 09:28:43;;;;;;;2.83;1.30;;;20.10;1.00;;;;;;7361021;19;20021;-59
2022/06/02 09:31:31;;;;;;;2.63;1.20;;;20.90;1.00;;;;;;7363863;19;20014;-58
2022/06/02 09:34:35;;;;;;;2.45;1.58;;;21.30;1.00;;;;;;7359065;19;20010;-57
2022/06/02 09:37:27;;;;;;;3.42;1.50;;;21.10;1.00;;;;;;7359894;19;20702;-59
2022/06/02 09:40:22;;;;;;;7.25;1.80;;;20.50;1.00;;;;;;7363610;19;20473;-59
2022/06/02 09:43:30;;;;;;;5.15;1.10;;;20.40;1.00;;;;;;7363448;19;20481;-58
2022/06/02 09:46:16;;;;;;;3.40;1.30;;;20.60;1.00;;;;;;7365848;19;20018;-59
2022/06/02 09:49:24;;;;;;;3.47;1.42;;;21.20;1.00;;;;;;7367099;19;20488;-58
2022/06/02 09:51:59;;;;;;;1.17;0.95;;;21.00;1.00;;;;;;7370684;19;20013;-59
2022/06/02 09:54:44;;;;;;;3.35;1.60;;;20.70;1.00;;;;;;7388947;19;20017;-59
2022/06/02 09:58:00;;;;;;;2.08;1.20;;;21.50;1.00;;;;;;7364014;19;20014;-60
2022/06/02 10:00:45;;;;;;;2.05;1.30;;;21.50;1.00;;;;;;7268185;19;2004208;-59
2022/06/02 10:03:28;;;;;;;;;;;21.90;1.00;;;;;;7392613;19;20049;-59
2022/06/02 10:06:14;;;;;;;2.20;1.10;;;21.40;1.00;;;;;;7367089;19;19939;-59
2022/06/02 10:09:01;;;;;;;2.15;1.10;;;21.30;1.00;;;;;;7365870;19;20015;-60
2022/06/02 10:11:44;;;;;;;4.20;1.08;;;21.00;1.00;;;;;;7370102;19;20476;-60
2022/06/02 10:14:36;;;;;;;2.15;1.38;;;20.90;1.00;;;;;;7365685;19;20038;-59
2022/06/02 10:17:34;;;;;;;2.97;1.40;;;21.10;1.00;;;;;;7363563;19;20015;-59
2022/06/02 10:20:37;;;;;;;2.05;1.30;;;21.40;1.00;;;;;;7368462;19;20093;-59
2022/06/02 10:23:27;;;;;;;4.75;1.40;;;22.50;1.00;;;;;;7367211;19;20074;-59
2022/06/02 10:26:14;;;;;;;3.88;1.20;;;22.50;1.00;;;;;;7366210;19;20081;-59
2022/06/02 10:29:28;;;;;;;1.60;1.15;;;22.40;1.00;;;;;;7365511;19;20150;-59
2022/06/02 10:32:31;;;;;;;1.67;1.30;;;21.40;1.00;;;;;;7369269;19;20054;-59
2022/06/02 10:35:36;;;;;;;5.18;1.52;;;20.70;1.00;;;;;;7366848;19;20019;-59
2022/06/02 10:38:30;;;;;;;2.20;1.23;;;21.40;1.00;;;;;;7364642;19;20033;-58
2022/06/02 10:41:17;;;;;;;2.85;1.20;;;21.70;1.00;;;;;;7370243;19;20017;-60
2022/06/02 10:44:02;;;;;;;5.75;1.92;;;21.80;1.00;;;;;;7365649;19;20013;-59
2022/06/02 10:47:02;;;;;;;3.10;1.38;;;21.40;1.00;;;;;;7367235;19;20018;-59
2022/06/02 10:49:45;;;;;;;1.83;1.30;;;21.30;1.00;;;;;;7365661;19;20022;-60
2022/06/02 10:52:43;;;;;;;2.65;1.40;;;21.20;1.00;;;;;;7367679;19;20014;-60
2022/06/02 10:55:47;;;;;;;3.33;1.20;;;21.60;1.00;;;;;;7363770;19;20011;-60
2022/06/02 10:58:46;;;;;;;2.95;1.13;;;21.80;1.00;;;;;;7364288;19;20475;-60
2022/06/02 11:01:45;;;;;;;5.05;1.48;;;21.80;1.00;;;;;;7369919;19;20006;-59
2022/06/02 11:04:58;;;;;;;2.13;1.00;;;21.70;1.00;;;;;;7364832;19;20108;-59
2022/06/02 11:08:03;;;;;;;2.35;1.00;;;22.00;1.00;;;;;;7362961;19;20052;-59
2022/06/02 11:10:45;;;;;;;2.88;1.23;;;22.50;1.00;;;;;;7366518;19;20018;-59
2022/06/02 11:13:54;;;;;;;2.17;1.08;;;22.50;1.00;;;;;;7364070;19;20016;-57
2022/06/02 11:17:06;;;;;;;1.95;1.05;;;22.50;1.00;;;;;;7365909;19;20018;-59
2022/06/02 11:20:01;;;;;;;5.60;1.25;;;22.30;1.00;;;;;;7366623;19;20012;-59
2022/06/02 11:22:44;;;;;;;;;;;22.50;1.00;;;;;;7363777;19;20561;-59
2022/06/02 11:25:58;;;;;;;58.38;39.33;;;22.70;1.00;;;;;;7363937;19;19925;-59
2022/06/02 11:28:54;;;;;;;4.75;1.30;;;22.80;1.00;;;;;;7363093;19;20466;-59
2022/06/02 11:31:54;;;;;;;1.45;1.23;;;23.20;1.00;;;;;;7363556;19;20011;-58
2022/06/02 11:34:56;;;;;;;1.73;1.23;;;22.80;1.00;;;;;;7361928;19;20477;-59
2022/06/02 11:38:00;;;;;;;4.35;1.13;;;22.90;1.00;;;;;;7359975;19;20007;-60
2022/06/02 11:41:03;;;;;;;3.58;1.02;;;23.00;1.00;;;;;;7363591;19;20586;-59
2022/06/02 11:43:49;;;;;;;2.30;1.25;;;23.40;1.00;;;;;;7364259;19;20017;-59
2022/06/02 11:47:09;;;;;;;2.78;1.30;;;23.30;1.00;;;;;;7363622;19;20710;-59
2022/06/02 11:50:12;;;;;;;2.28;1.10;;;22.50;1.00;;;;;;7366444;19;20006;-58
2022/06/02 11:53:09;;;;;;;2.78;1.48;;;22.70;1.00;;;;;;7362587;19;20058;-60
2022/06/02 11:55:45;;;;;;;2.42;1.10;;;22.90;1.00;;;;;;7363967;19;20017;-59
2022/06/02 11:58:45;;;;;;;2.55;1.27;;;22.70;1.00;;;;;;7364518;19;20022;-59
2022/06/02 12:01:43;;;;;;;3.03;1.20;;;23.00;1.00;;;;;;7363573;19;20085;-59
2022/06/02 12:04:50;;;;;;;2.50;1.20;;;23.10;1.00;;;;;;7354577;19;20023;-60
2022/06/02 12:08:02;;;;;;;4.95;1.38;;;23.20;1.00;;;;;;7362858;19;20374;-59
2022/06/02 12:11:01;;;;;;;5.32;1.10;;;23.40;1.00;;;;;;7362573;19;20056;-60
2022/06/02 12:13:55;;;;;;;3.67;1.13;;;23.10;1.00;;;;;;7362032;19;20478;-59
2022/06/02 12:16:48;;;;;;;8.40;1.45;;;23.80;1.00;;;;;;7365481;19;20025;-59
2022/06/02 12:19:42;;;;;;;4.15;1.35;;;23.40;1.00;;;;;;7363856;19;20036;-60
2022/06/02 12:22:32;;;;;;;1.58;1.08;;;23.30;1.00;;;;;;7364067;19;20118;-59
2022/06/02 12:25:35;;;;;;;2.20;1.10;;;23.50;1.00;;;;;;7362589;19;20376;-59
2022/06/02 12:28:45;;;;;;;3.58;1.30;;;23.80;1.00;;;;;;7364789;19;21291;-60
2022/06/02 12:31:56;;;;;;;3.33;1.05;;;23.60;1.00;;;;;;7364155;19;20081;-59
2022/06/02 12:34:56;;;;;;;3.00;1.38;;;24.00;1.00;;;;;;7362313;19;20007;-59
2022/06/02 12:37:56;;;;;;;2.83;1.55;;;23.40;1.00;;;;;;7360952;19;20013;-60
2022/06/02 12:40:37;;;;;;;2.78;1.25;;;23.00;1.00;;;;;;7364173;19;20019;-60
2022/06/02 12:43:26;;;;;;;2.42;1.20;;;23.30;1.00;;;;;;7362936;19;20030;-58
2022/06/02 12:46:07;;;;;;;2.17;1.42;;;23.50;1.00;;;;;;7361201;19;20021;-59
2022/06/02 12:49:08;;;;;;;2.80;1.20;;;23.40;1.00;;;;;;7364380;19;20014;-60
2022/06/02 12:52:18;;;;;;;3.60;1.20;;;23.60;1.00;;;;;;7365450;19;20694;-60
2022/06/02 12:55:25;;;;;;;1.77;1.05;;;23.80;1.00;;;;;;7359167;19;20029;-59
2022/06/02 12:58:34;;;;;;;2.00;1.42;;;23.70;1.00;;;;;;7363712;19;20089;-60
2022/06/02 13:01:14;;;;;;;3.88;1.52;;;23.40;1.00;;;;;;7359986;19;20009;-61
2022/06/02 13:04:11;;;;;;;4.57;1.20;;;23.80;1.00;;;;;;7360262;19;20461;-58
2022/06/02 13:07:10;;;;;;;1.67;1.45;;;23.80;1.00;;;;;;7360706;19;20018;-59
2022/06/02 13:10:07;;;;;;;3.42;1.35;;;24.20;1.00;;;;;;7362493;19;20082;-59
2022/06/02 13:13:04;;;;;;;1.42;1.17;;;24.00;1.00;;;;;;7360610;19;20011;-61
2022/06/02 13:16:07;;;;;;;1.58;1.10;;;24.00;1.00;;;;;;7360533;19;20350;-59
2022/06/02 13:19:04;;;;;;;2.03;1.40;;;23.30;1.00;;;;;;7361018;19;20033;-60
2022/06/02 13:22:15;;;;;;;1.65;1.20;;;22.90;1.00;;;;;;7362752;19;20500;-61
2022/06/02 13:25:15;;;;;;;2.90;1.02;;;23.90;1.00;;;;;;7361051;19;20046;-60
2022/06/02 13:28:13;;;;;;;1.27;1.17;;;23.70;1.00;;;;;;7361092;19;20007;-60
2022/06/02 13:31:04;;;;;;;5.47;1.20;;;24.10;1.00;;;;;;7362805;19;20018;-59
2022/06/02 13:34:03;;;;;;;2.53;1.20;;;23.40;1.00;;;;;;7361767;19;20010;-59
2022/06/02 13:36:45;;;;;;;3.60;1.48;;;23.50;1.00;;;;;;7359307;19;20026;-60
2022/06/02 13:39:48;;;;;;;1.55;1.20;;;23.10;1.00;;;;;;7381146;19;20057;-59
2022/06/02 13:42:42;;;;;;;3.25;1.58;;;23.30;1.00;;;;;;7361818;19;20010;-59
2022/06/02 13:45:38;;;;;;;2.05;0.98;;;23.50;1.00;;;;;;7362073;19;20003;-59
2022/06/02 13:48:41;;;;;;;4.18;1.40;;;23.40;1.00;;;;;;7362035;19;20016;-59
2022/06/02 13:51:47;;;;;;;2.40;1.10;;;23.70;1.00;;;;;;7362521;19;20119;-59
2022/06/02 13:57:50;;;;;;;2.40;1.13;;;23.40;1.00;;;;;;7258262;19;2004346;-59
2022/06/02 14:00:24;;;;;;;4.88;1.30;;;23.80;1.00;;;;;;7384077;19;20025;-58
2022/06/02 14:03:27;;;;;;;2.53;1.10;;;23.30;1.00;;;;;;7358665;19;20082;-60
2022/06/02 14:06:10;;;;;;;2.10;1.08;;;23.60;1.00;;;;;;7358211;19;20119;-59
2022/06/02 14:09:10;;;;;;;2.25;1.00;;;23.70;1.00;;;;;;7359806;19;20015;-60
2022/06/02 14:11:51;;;;;;;4.32;1.27;;;23.70;1.00;;;;;;7361220;19;20058;-60
2022/06/02 14:14:52;;;;;;;4.47;1.20;;;23.50;1.00;;;;;;7357209;19;20093;-59
2022/06/02 14:17:35;;;;;;;1.45;1.17;;;23.30;1.00;;;;;;7356011;19;20025;-59
2022/06/02 14:20:20;;;;;;;4.85;1.50;;;23.80;1.00;;;;;;7360794;19;20010;-58
2022/06/02 14:23:01;;;;;;;3.60;1.20;;;24.00;1.00;;;;;;7359758;19;20520;-60
2022/06/02 14:25:43;;;;;;;2.78;1.15;;;23.90;1.00;;;;;;7358887;19;20074;-59
2022/06/02 14:28:29;;;;;;;2.55;1.23;;;24.10;1.00;;;;;;7360987;19;20006;-59
2022/06/02 14:31:07;;;;;;;2.63;1.30;;;23.40;1.00;;;;;;7368116;19;20020;-59
2022/06/02 14:33:40;;;;;;;2.92;1.25;;;23.40;1.00;;;;;;7365654;19;20027;-59
2022/06/02 14:36:22;;;;;;;4.83;1.30;;;23.50;1.00;;;;;;7388294;19;20031;-59
2022/06/02 14:39:04;;;;;;;4.22;1.25;;;23.60;1.00;;;;;;7365998;19;20019;-60
2022/06/02 14:41:48;;;;;;;1.60;1.30;;;23.70;1.00;;;;;;7364550;19;20359;-59
2022/06/02 14:44:29;;;;;;;1.85;1.40;;;23.60;1.00;;;;;;7364736;19;20013;-59
2022/06/02 14:47:16;;;;;;;5.38;1.27;;;24.00;1.00;;;;;;7365718;19;20006;-60
2022/06/02 14:50:06;;;;;;;3.40;1.25;;;23.90;1.00;;;;;;7367646;19;20011;-59
2022/06/02 14:53:17;;;;;;;4.15;1.30;;;23.90;1.00;;;;;;7366141;19;20082;-59
2022/06/02 14:55:54;;;;;;;2.78;1.17;;;24.10;1.00;;;;;;7364553;19;20006;-58
2022/06/02 14:58:37;;;;;;;4.35;1.40;;;23.70;1.00;;;;;;7365432;19;20006;-59
2022/06/02 15:01:21;;;;;;;4.60;1.20;;;24.10;1.00;;;;;;7365601;19;20360;-61